Time;durP1;ratioP1;P1;durP2;ratioP2;P2;SDS_P1;SDS_P2;PMS_P1;PMS_P2;Temp;Humidity;BMP_temperature;BMP_pressure;BME280_temperature;BME280_humidity;BME280_pressure;Samples;Min_cycle;Max_cycle;Signal;HPM_P1;HPM_P2
2023/03/21 00:00:18;;;;;;;1999.90;999.90;;;11.90;99.90;;;;;;5093638;28;20054;-89
2023/03/21 00:02:45;;;;;;;1999.90;999.90;;;11.80;99.90;;;;;;5076706;28;20040;-89
2023/03/21 00:05:10;;;;;;;886.63;291.80;;;12.40;99.90;;;;;;5074196;28;20472;-89
2023/03/21 00:07:36;;;;;;;1999.90;999.90;;;12.40;99.90;;;;;;5075404;28;20072;-89
2023/03/21 00:10:03;;;;;;;1291.30;532.88;;;12.20;99.90;;;;;;5073124;28;20080;-88
2023/03/21 00:12:31;;;;;;;1999.90;999.90;;;11.90;99.90;;;;;;5075720;28;20049;-89
2023/03/21 00:15:04;;;;;;;;;;;12.40;99.90;;;;;;5079217;28;20427;-88
2023/03/21 00:17:31;;;;;;;1366.25;542.88;;;12.50;99.90;;;;;;5059554;28;19919;-88
2023/03/21 00:20:05;;;;;;;1999.90;999.90;;;12.00;99.90;;;;;;5093642;28;20047;-88
2023/03/21 00:22:34;;;;;;;984.65;300.25;;;12.20;99.90;;;;;;5077076;28;20048;-89
2023/03/21 00:25:00;;;;;;;1999.90;999.90;;;11.80;99.90;;;;;;5088851;28;20044;-88
2023/03/21 00:27:26;;;;;;;1999.90;999.90;;;12.50;99.90;;;;;;5073591;28;20036;-88
2023/03/21 00:29:52;;;;;;;1625.38;763.05;;;12.50;99.90;;;;;;5073702;28;20503;-88
2023/03/21 00:32:20;;;;;;;1999.90;999.90;;;11.90;99.90;;;;;;5073623;28;20051;-88
2023/03/21 00:34:46;;;;;;;1999.90;999.90;;;12.60;99.90;;;;;;5086408;28;20039;-88
2023/03/21 00:37:15;;;;;;;1332.38;534.47;;;13.20;99.90;;;;;;5069418;28;20036;-88
2023/03/21 00:39:43;;;;;;;1999.90;999.90;;;12.10;99.90;;;;;;5092238;28;20052;-87
2023/03/21 00:42:09;;;;;;;1999.90;999.90;;;11.90;99.90;;;;;;5075928;28;20140;-87
2023/03/21 00:44:35;;;;;;;1999.90;999.90;;;12.20;99.90;;;;;;5089561;28;20484;-87
2023/03/21 00:47:02;;;;;;;1252.55;532.42;;;12.50;99.90;;;;;;5083465;28;20048;-87
2023/03/21 00:49:32;;;;;;;1999.90;999.90;;;11.80;99.90;;;;;;5094008;28;20040;-87
2023/03/21 00:51:59;;;;;;;1999.90;999.90;;;12.50;99.90;;;;;;5081444;28;20102;-88
2023/03/21 00:54:25;;;;;;;1999.90;999.90;;;12.50;99.90;;;;;;5066229;28;20058;-87
2023/03/21 00:56:51;;;;;;;1593.85;344.60;;;13.00;99.90;;;;;;5073482;28;20131;-87
2023/03/21 00:59:17;;;;;;;1999.90;999.90;;;;;;;;;;5073033;28;20037;-86
2023/03/21 01:01:45;;;;;;;1999.90;999.90;;;13.50;99.90;;;;;;5087610;28;20048;-86
2023/03/21 01:04:13;;;;;;;1999.90;999.90;;;11.80;99.90;;;;;;5091848;28;20123;-86
2023/03/21 01:06:40;;;;;;;1999.90;999.90;;;11.90;99.90;;;;;;5075745;28;20109;-86
2023/03/21 01:09:10;;;;;;;1261.72;93.10;;;11.80;99.90;;;;;;5089422;28;20086;-86
2023/03/21 01:11:36;;;;;;;1304.20;533.95;;;12.00;99.90;;;;;;5093897;28;20130;-86
2023/03/21 01:14:01;;;;;;;1999.90;999.90;;;12.50;99.90;;;;;;5080777;28;20306;-86
2023/03/21 01:16:27;;;;;;;1630.38;765.83;;;12.00;99.90;;;;;;5077886;28;20051;-86
2023/03/21 01:18:53;;;;;;;1999.90;999.90;;;15.40;99.90;;;;;;5093806;28;20091;-86
2023/03/21 01:21:19;;;;;;;1999.90;999.90;;;12.70;99.90;;;;;;5076191;28;20513;-86
2023/03/21 01:23:45;;;;;;;1999.90;999.90;;;11.20;99.90;;;;;;5055803;28;20040;-86
2023/03/21 01:26:12;;;;;;;1999.90;999.90;;;11.80;99.90;;;;;;5092245;28;20079;-86
2023/03/21 01:28:39;;;;;;;1999.90;999.90;;;12.60;99.90;;;;;;5088984;28;20097;-87
2023/03/21 01:31:06;;;;;;;1999.90;999.90;;;12.00;99.90;;;;;;5092303;28;20052;-87
2023/03/21 01:33:32;;;;;;;1999.90;999.90;;;12.50;99.90;;;;;;5092094;28;20432;-87
2023/03/21 01:35:59;;;;;;;1223.82;527.72;;;12.50;99.90;;;;;;5083225;28;20110;-86
2023/03/21 01:38:25;;;;;;;1319.88;533.92;;;10.90;99.90;;;;;;5061165;28;20094;-87
2023/03/21 01:40:51;;;;;;;1999.90;999.90;;;11.90;99.90;;;;;;5057662;28;20048;-87
2023/03/21 01:43:32;;;;;;;1999.90;999.90;;;11.90;99.90;;;;;;5081907;28;20588;-87
2023/03/21 01:46:10;;;;;;;1999.90;999.90;;;11.90;99.90;;;;;;5078009;28;20080;-87
2023/03/21 01:48:42;;;;;;;1999.90;999.90;;;12.30;99.90;;;;;;5079960;28;20269;-87
2023/03/21 01:51:11;;;;;;;1999.90;999.90;;;12.40;99.90;;;;;;5065957;28;20056;-87
2023/03/21 01:53:38;;;;;;;1658.53;770.03;;;12.00;99.90;;;;;;5061858;28;20044;-87
2023/03/21 01:56:26;;;;;;;1999.90;999.90;;;12.20;99.90;;;;;;5080027;28;20054;-87
2023/03/21 01:58:57;;;;;;;1999.90;999.90;;;11.80;99.90;;;;;;5068743;28;20079;-87
2023/03/21 02:01:23;;;;;;;1999.90;999.90;;;12.60;99.90;;;;;;5079238;28;20401;-87
2023/03/21 02:03:51;;;;;;;1999.90;999.90;;;12.20;99.90;;;;;;5072857;28;20058;-87
2023/03/21 02:06:36;;;;;;;1999.90;999.90;;;12.30;99.90;;;;;;5074444;28;20052;-87
2023/03/21 02:09:07;;;;;;;1999.90;999.90;;;12.00;99.90;;;;;;5078554;28;20059;-87
2023/03/21 02:11:35;;;;;;;1335.35;536.20;;;11.90;99.90;;;;;;5084061;28;20044;-87
2023/03/21 02:14:01;;;;;;;1999.90;999.90;;;12.00;99.90;;;;;;5079487;28;20040;-87
2023/03/21 02:17:04;;;;;;;675.88;77.20;;;11.90;99.90;;;;;;5058485;28;20040;-87
2023/03/21 02:19:48;;;;;;;1999.90;999.90;;;12.30;99.90;;;;;;5045539;28;20044;-87
2023/03/21 02:22:51;;;;;;;1999.90;999.90;;;11.90;99.90;;;;;;5080668;28;20079;-88
2023/03/21 02:25:44;;;;;;;1999.90;999.90;;;11.90;99.90;;;;;;5060197;28;20064;-88
2023/03/21 02:28:38;;;;;;;1999.90;999.90;;;12.40;99.90;;;;;;5069222;28;20144;-88
2023/03/21 02:31:35;;;;;;;1999.90;999.90;;;12.00;99.90;;;;;;5080899;28;20041;-87
2023/03/21 02:34:27;;;;;;;1999.90;999.90;;;12.60;99.90;;;;;;5046227;28;20048;-88
2023/03/21 02:36:55;;;;;;;1999.90;999.90;;;9.70;99.90;;;;;;5022266;28;20102;-88
2023/03/21 02:39:40;;;;;;;1999.90;999.90;;;12.10;99.90;;;;;;5058295;28;20046;-88
2023/03/21 02:42:20;;;;;;;1999.90;999.90;;;11.50;99.90;;;;;;5079167;28;20056;-88
2023/03/21 02:45:08;;;;;;;1999.90;999.90;;;12.50;99.90;;;;;;5076016;28;20095;-88
2023/03/21 02:47:48;;;;;;;1999.90;999.90;;;12.40;99.90;;;;;;5064516;28;20045;-89
2023/03/21 02:50:17;;;;;;;325.90;34.42;;;12.50;99.90;;;;;;5061909;28;20291;-87
2023/03/21 02:52:47;;;;;;;1999.90;999.90;;;12.60;99.90;;;;;;5100746;28;20044;-88
2023/03/21 02:55:18;;;;;;;1280.40;531.88;;;12.50;99.90;;;;;;5101452;28;20040;-88
2023/03/21 02:57:46;;;;;;;1398.55;539.42;;;12.60;99.90;;;;;;5082008;28;20028;-88
2023/03/21 03:00:15;;;;;;;1650.90;766.25;;;12.60;99.90;;;;;;5091121;28;20480;-88
2023/03/21 03:02:42;;;;;;;1749.65;766.78;;;12.20;99.90;;;;;;5097116;28;20476;-88
2023/03/21 03:05:24;;;;;;;1999.90;999.90;;;9.10;99.90;;;;;;5065551;28;20040;-89
2023/03/21 03:07:49;;;;;;;1999.90;999.90;;;12.30;99.90;;;;;;5082213;28;20190;-89
2023/03/21 03:10:26;;;;;;;1999.90;999.90;;;12.10;99.90;;;;;;5109515;28;20523;-89
2023/03/21 03:13:34;;;;;;;1999.90;999.90;;;12.50;99.90;;;;;;5100342;28;20036;-88
2023/03/21 03:16:21;;;;;;;1999.90;999.90;;;11.60;99.90;;;;;;5075775;28;20070;-88
2023/03/21 03:18:57;;;;;;;1999.90;999.90;;;12.50;99.90;;;;;;5071254;28;20036;-89
2023/03/21 03:21:39;;;;;;;1999.90;999.90;;;12.10;99.90;;;;;;5075392;28;20537;-89
2023/03/21 03:24:15;;;;;;;1999.90;999.90;;;11.80;99.90;;;;;;5079945;28;20076;-88
2023/03/21 03:27:02;;;;;;;1999.90;999.90;;;12.50;99.90;;;;;;5062467;28;20497;-89
2023/03/21 03:29:31;;;;;;;1999.90;999.90;;;11.80;99.90;;;;;;5075402;28;20431;-88
2023/03/21 03:32:00;;;;;;;1728.15;765.80;;;12.50;99.90;;;;;;5076358;28;20079;-89
2023/03/21 03:34:33;;;;;;;1999.90;999.90;;;12.30;99.90;;;;;;5084732;28;20055;-88
2023/03/21 03:37:03;;;;;;;1999.90;999.90;;;12.20;99.90;;;;;;5096596;28;20056;-89
2023/03/21 03:39:36;;;;;;;1999.90;999.90;;;12.10;99.90;;;;;;5095033;28;20048;-89
2023/03/21 03:42:07;;;;;;;1999.90;999.90;;;12.30;99.90;;;;;;5069206;28;20346;-88
2023/03/21 03:44:34;;;;;;;1387.38;544.10;;;11.80;99.90;;;;;;5090218;28;20472;-89
2023/03/21 03:47:09;;;;;;;1999.90;999.90;;;12.60;99.90;;;;;;5075498;28;20040;-89
2023/03/21 03:49:54;;;;;;;1999.90;999.90;;;12.50;99.90;;;;;;5075393;28;20044;-90
2023/03/21 03:52:26;;;;;;;1334.60;527.50;;;11.90;99.90;;;;;;5061767;28;20460;-89
2023/03/21 03:54:53;;;;;;;1999.90;999.90;;;12.60;99.90;;;;;;5078973;28;20068;-89
2023/03/21 03:57:20;;;;;;;1999.90;999.90;;;11.90;99.90;;;;;;5057311;28;20048;-89
2023/03/21 03:59:46;;;;;;;1999.90;999.90;;;12.40;99.90;;;;;;5091638;28;20044;-89
2023/03/21 04:02:12;;;;;;;1999.90;999.90;;;12.20;99.90;;;;;;5085097;28;20472;-88
2023/03/21 04:04:40;;;;;;;1999.90;999.90;;;11.90;99.90;;;;;;5049380;28;20069;-89
2023/03/21 04:07:06;;;;;;;;;;;11.80;99.90;;;;;;5061219;28;20040;-88
2023/03/21 04:09:32;;;;;;;1545.85;543.88;;;;;;;;;;5069777;28;20014;-89
2023/03/21 04:11:58;;;;;;;1999.90;999.90;;;12.10;99.90;;;;;;5075612;28;20040;-89
2023/03/21 04:14:25;;;;;;;1999.90;999.90;;;12.40;99.90;;;;;;5074539;28;20460;-89
2023/03/21 04:16:51;;;;;;;1999.90;999.90;;;12.60;99.90;;;;;;5080880;28;20057;-89
2023/03/21 04:19:17;;;;;;;1999.90;999.90;;;13.40;99.90;;;;;;5079442;28;20055;-89
2023/03/21 04:21:43;;;;;;;1999.90;999.90;;;11.90;99.90;;;;;;5076283;28;20040;-88
2023/03/21 04:24:10;;;;;;;1999.90;999.90;;;12.50;99.90;;;;;;5078366;28;20059;-88
2023/03/21 04:26:37;;;;;;;1999.90;999.90;;;12.30;99.90;;;;;;5069883;28;20123;-89
2023/03/21 04:29:03;;;;;;;558.15;61.15;;;11.90;99.90;;;;;;5072521;28;20048;-89
2023/03/21 04:31:33;;;;;;;1999.90;999.90;;;11.90;99.90;;;;;;5072798;28;20055;-89
2023/03/21 04:34:00;;;;;;;1999.90;999.90;;;11.90;99.90;;;;;;5071734;28;20062;-90
2023/03/21 04:36:32;;;;;;;1999.90;999.90;;;12.00;99.90;;;;;;5071641;28;20047;-90
2023/03/21 04:39:01;;;;;;;1999.90;999.90;;;12.60;99.90;;;;;;5076584;28;20421;-89
2023/03/21 04:41:28;;;;;;;1999.90;999.90;;;12.00;99.90;;;;;;5074928;28;20051;-90
2023/03/21 04:43:54;;;;;;;1999.90;999.90;;;11.90;99.90;;;;;;5093781;28;20048;-89
2023/03/21 04:46:20;;;;;;;1999.90;999.90;;;12.50;99.90;;;;;;5064587;28;20423;-89
2023/03/21 04:48:46;;;;;;;1999.90;999.90;;;12.50;99.90;;;;;;5079605;28;20028;-89
2023/03/21 04:51:12;;;;;;;1372.93;544.05;;;13.70;99.90;;;;;;5087055;28;20062;-89
2023/03/21 04:53:38;;;;;;;1302.75;527.90;;;12.10;99.90;;;;;;5073582;28;20567;-89
2023/03/21 04:56:05;;;;;;;1999.90;999.90;;;12.60;99.90;;;;;;5073723;28;20036;-89
2023/03/21 04:58:31;;;;;;;1999.90;999.90;;;9.80;99.90;;;;;;5059465;28;20040;-89
2023/03/21 05:00:57;;;;;;;1999.90;999.90;;;11.90;99.90;;;;;;5083834;28;20036;-89
2023/03/21 05:03:24;;;;;;;1999.90;999.90;;;11.90;99.90;;;;;;5076054;28;20103;-90
2023/03/21 05:05:49;;;;;;;1999.90;999.90;;;12.60;99.90;;;;;;5092912;28;20036;-90
2023/03/21 05:08:15;;;;;;;1999.90;999.90;;;11.70;99.90;;;;;;5080432;28;20063;-89
2023/03/21 05:10:41;;;;;;;1999.90;999.90;;;11.90;99.90;;;;;;5069330;28;20049;-89
2023/03/21 05:13:07;;;;;;;1999.90;999.90;;;12.00;99.90;;;;;;5065406;28;20051;-90
2023/03/21 05:15:33;;;;;;;1999.90;999.90;;;11.90;99.90;;;;;;5089409;28;20044;-90
2023/03/21 05:18:09;;;;;;;1999.90;999.90;;;12.40;99.90;;;;;;5038917;28;20519;-91
2023/03/21 05:20:34;;;;;;;1999.90;999.90;;;11.90;99.90;;;;;;5063763;28;20872;-91
2023/03/21 05:23:00;;;;;;;1999.90;999.90;;;11.90;99.90;;;;;;5085375;28;20048;-85
2023/03/21 05:25:33;;;;;;;1999.90;999.90;;;12.00;99.90;;;;;;5091730;28;20044;-86
2023/03/21 05:28:00;;;;;;;1999.90;999.90;;;12.10;99.90;;;;;;5080615;28;20044;-86
2023/03/21 05:30:27;;;;;;;1999.90;999.90;;;12.00;99.90;;;;;;5089798;28;20519;-87
2023/03/21 05:32:53;;;;;;;1999.90;999.90;;;11.90;99.90;;;;;;5101832;28;20047;-88
2023/03/21 05:35:19;;;;;;;1999.90;999.90;;;12.60;99.90;;;;;;5085746;28;20048;-89
2023/03/21 05:37:45;;;;;;;1881.03;563.85;;;12.50;99.90;;;;;;5086251;28;20118;-88
2023/03/21 05:40:11;;;;;;;1999.90;999.90;;;11.90;99.90;;;;;;5088836;28;20074;-87
2023/03/21 05:42:38;;;;;;;1999.90;999.90;;;11.90;99.90;;;;;;5085543;28;20048;-87
2023/03/21 05:45:04;;;;;;;1410.78;543.58;;;12.50;99.90;;;;;;5059507;28;20110;-88
2023/03/21 05:47:30;;;;;;;1999.90;999.90;;;12.60;99.90;;;;;;5084497;28;20040;-87
2023/03/21 05:49:56;;;;;;;1260.60;535.40;;;11.90;99.90;;;;;;5075382;28;20138;-87
2023/03/21 05:52:22;;;;;;;1057.40;306.58;;;12.50;99.90;;;;;;5077848;28;20110;-87
2023/03/21 05:54:49;;;;;;;1999.90;999.90;;;12.00;99.90;;;;;;5078233;28;20043;-87
2023/03/21 05:57:17;;;;;;;816.67;100.88;;;12.60;99.90;;;;;;5083704;28;20063;-87
2023/03/21 05:59:44;;;;;;;1405.88;544.90;;;12.60;99.90;;;;;;5077957;28;20040;-87
2023/03/21 06:02:10;;;;;;;1999.90;999.90;;;12.10;99.90;;;;;;5088693;28;20122;-89
2023/03/21 06:04:36;;;;;;;1999.90;999.90;;;11.90;99.90;;;;;;5096734;28;20050;-87
2023/03/21 06:07:02;;;;;;;1747.32;766.33;;;12.60;99.90;;;;;;5071612;28;20480;-88
2023/03/21 06:09:28;;;;;;;1341.03;538.75;;;12.60;99.90;;;;;;5088191;28;20040;-88
2023/03/21 06:11:55;;;;;;;1999.90;999.90;;;11.90;99.90;;;;;;5091939;28;20031;-87
2023/03/21 06:14:22;;;;;;;1999.90;999.90;;;11.90;99.90;;;;;;5087603;28;20043;-87
2023/03/21 06:16:49;;;;;;;1999.90;999.90;;;12.30;99.90;;;;;;5047150;28;20052;-86
2023/03/21 06:19:15;;;;;;;1999.90;999.90;;;11.90;99.90;;;;;;5078819;28;20040;-86
2023/03/21 06:21:41;;;;;;;1999.90;999.90;;;12.60;99.90;;;;;;5070236;28;20051;-86
2023/03/21 06:24:07;;;;;;;1367.30;537.95;;;12.50;99.90;;;;;;5084744;28;20043;-86
2023/03/21 06:26:33;;;;;;;1999.90;999.90;;;12.00;99.90;;;;;;5085411;28;20040;-86
2023/03/21 06:28:59;;;;;;;1999.90;999.90;;;12.80;99.90;;;;;;5056922;28;20049;-88
2023/03/21 06:31:25;;;;;;;1999.90;999.90;;;11.90;99.90;;;;;;5081993;28;20040;-87
2023/03/21 06:33:51;;;;;;;1999.90;999.90;;;12.00;99.90;;;;;;5065853;28;20633;-87
2023/03/21 06:36:18;;;;;;;1463.50;545.60;;;12.30;99.90;;;;;;5085811;28;20500;-87
2023/03/21 06:38:45;;;;;;;1228.78;321.67;;;12.00;99.90;;;;;;5062287;28;20041;-88
2023/03/21 06:41:12;;;;;;;1286.32;532.47;;;12.70;99.90;;;;;;5085216;28;20106;-87
2023/03/21 06:43:37;;;;;;;1999.90;999.90;;;12.00;99.90;;;;;;5070850;28;20400;-88
2023/03/21 06:46:04;;;;;;;1999.90;999.90;;;12.60;99.90;;;;;;5073646;28;20044;-87
2023/03/21 06:48:31;;;;;;;1999.90;999.90;;;11.80;99.90;;;;;;5086265;28;20123;-88
2023/03/21 06:50:57;;;;;;;1999.90;999.90;;;12.10;99.90;;;;;;5088631;28;20416;-87
2023/03/21 06:53:26;;;;;;;1999.90;999.90;;;12.50;99.90;;;;;;5075533;28;20119;-88
2023/03/21 06:55:53;;;;;;;889.83;293.33;;;12.60;99.90;;;;;;5054560;28;20044;-87
2023/03/21 06:58:19;;;;;;;1999.90;999.90;;;12.20;99.90;;;;;;5075488;28;20044;-87
2023/03/21 07:00:45;;;;;;;1649.50;575.97;;;12.20;99.90;;;;;;5095715;28;20274;-87
2023/03/21 07:03:12;;;;;;;1286.93;524.05;;;12.70;99.90;;;;;;5074943;28;20478;-87
2023/03/21 07:05:39;;;;;;;1999.90;999.90;;;12.50;99.90;;;;;;5075718;28;20036;-87
2023/03/21 07:08:09;;;;;;;1085.97;387.97;;;12.10;99.90;;;;;;5077053;28;20076;-87
2023/03/21 07:10:38;;;;;;;1040.53;311.83;;;12.30;99.90;;;;;;5062462;28;20396;-89
2023/03/21 07:13:04;;;;;;;1999.90;999.90;;;12.00;99.90;;;;;;5079017;28;20074;-87
2023/03/21 07:15:30;;;;;;;1999.90;999.90;;;12.80;99.90;;;;;;5075157;28;20591;-88
2023/03/21 07:17:55;;;;;;;1999.90;999.90;;;12.50;99.90;;;;;;5074622;28;20471;-88
2023/03/21 07:20:21;;;;;;;1348.00;539.42;;;12.90;99.90;;;;;;5095901;28;20130;-87
2023/03/21 07:22:47;;;;;;;1999.90;999.90;;;12.40;99.90;;;;;;5087548;28;20463;-87
2023/03/21 07:25:13;;;;;;;1999.90;999.90;;;12.40;99.90;;;;;;5090482;28;20036;-87
2023/03/21 07:27:39;;;;;;;1630.70;764.67;;;12.50;99.90;;;;;;5095203;28;20476;-87
2023/03/21 07:30:05;;;;;;;1999.90;999.90;;;12.20;99.90;;;;;;5085035;28;20519;-87
2023/03/21 07:32:33;;;;;;;1051.72;67.15;;;12.20;99.90;;;;;;5076659;28;20060;-89
2023/03/21 07:34:59;;;;;;;1999.90;999.90;;;12.90;99.90;;;;;;5088144;28;20049;-87
2023/03/21 07:37:25;;;;;;;1999.90;999.90;;;13.00;99.90;;;;;;5058322;28;20047;-88
2023/03/21 07:39:52;;;;;;;1999.90;999.90;;;12.00;99.90;;;;;;5083207;28;20040;-87
2023/03/21 07:42:18;;;;;;;1999.90;999.90;;;12.20;99.90;;;;;;5077168;28;20130;-87
2023/03/21 07:44:44;;;;;;;1630.22;765.15;;;12.80;99.90;;;;;;5095023;28;20112;-87
2023/03/21 07:47:10;;;;;;;878.03;92.55;;;12.20;99.90;;;;;;5093935;28;20501;-87
2023/03/21 07:49:36;;;;;;;1999.90;999.90;;;12.50;99.90;;;;;;5091138;28;20078;-87
2023/03/21 07:52:03;;;;;;;1999.90;999.90;;;12.40;99.90;;;;;;5095649;28;20043;-87
2023/03/21 07:54:29;;;;;;;1777.72;775.13;;;12.30;99.90;;;;;;5075644;28;20462;-87
2023/03/21 07:56:55;;;;;;;744.80;71.93;;;12.90;99.90;;;;;;5095247;28;20052;-88
2023/03/21 07:59:22;;;;;;;1999.90;999.90;;;12.90;99.90;;;;;;5090452;28;20404;-88
2023/03/21 08:01:47;;;;;;;1756.20;773.80;;;13.10;99.90;;;;;;5080701;28;20044;-88
2023/03/21 08:04:13;;;;;;;1508.60;548.45;;;12.10;99.90;;;;;;5074620;28;20374;-87
2023/03/21 08:06:39;;;;;;;1999.90;999.90;;;12.50;99.90;;;;;;5085850;28;20084;-87
2023/03/21 08:09:05;;;;;;;1999.90;999.90;;;12.30;99.90;;;;;;5090301;28;20044;-87
2023/03/21 08:11:31;;;;;;;1999.90;999.90;;;11.00;99.90;;;;;;5094349;28;20052;-87
2023/03/21 08:13:57;;;;;;;1393.50;546.17;;;12.80;99.90;;;;;;5092994;28;20134;-87
2023/03/21 08:16:23;;;;;;;1999.90;999.90;;;12.20;99.90;;;;;;5065491;28;20052;-87
2023/03/21 08:18:49;;;;;;;1895.65;782.92;;;12.20;99.90;;;;;;5081005;28;20105;-87
2023/03/21 08:21:15;;;;;;;1367.25;536.95;;;12.90;99.90;;;;;;5074634;28;20093;-87
2023/03/21 08:23:40;;;;;;;1347.05;532.20;;;12.40;99.90;;;;;;5054800;28;20048;-87
2023/03/21 08:26:08;;;;;;;1999.90;465.35;;;12.90;99.90;;;;;;5076693;28;20376;-87
2023/03/21 08:28:35;;;;;;;1999.90;999.90;;;12.40;99.90;;;;;;5057015;28;20056;-88
2023/03/21 08:31:07;;;;;;;1731.10;768.67;;;12.50;99.90;;;;;;5067146;28;20044;-87
2023/03/21 08:33:32;;;;;;;1269.78;528.10;;;12.50;99.90;;;;;;5073903;28;20515;-87
2023/03/21 08:35:59;;;;;;;1999.90;999.90;;;12.60;99.90;;;;;;5086926;28;20048;-88
2023/03/21 08:38:28;;;;;;;1999.90;999.90;;;12.90;99.90;;;;;;5084826;28;20396;-88
2023/03/21 08:40:55;;;;;;;1999.90;999.90;;;12.40;99.90;;;;;;5081541;28;20127;-87
2023/03/21 08:43:22;;;;;;;1999.90;999.90;;;12.30;99.90;;;;;;5076845;28;20048;-87
2023/03/21 08:45:48;;;;;;;1549.18;561.38;;;12.60;99.90;;;;;;5093944;28;20054;-87
2023/03/21 08:48:14;;;;;;;1747.00;766.30;;;12.30;99.90;;;;;;5092116;28;20050;-88
2023/03/21 08:50:40;;;;;;;1675.63;772.88;;;11.70;99.90;;;;;;5071207;28;20040;-87
2023/03/21 08:53:06;;;;;;;1999.90;999.90;;;12.50;99.90;;;;;;5070999;28;20484;-87
2023/03/21 08:55:32;;;;;;;1641.28;766.60;;;12.70;99.90;;;;;;5054832;28;20071;-88
2023/03/21 08:57:58;;;;;;;1999.90;999.90;;;12.40;99.90;;;;;;5073777;28;20087;-87
2023/03/21 09:00:24;;;;;;;1999.90;999.90;;;13.40;99.90;;;;;;5073311;28;20140;-87
2023/03/21 09:02:51;;;;;;;1716.22;774.53;;;12.90;99.90;;;;;;5057760;28;20044;-87
2023/03/21 09:05:17;;;;;;;1400.13;539.67;;;13.50;99.90;;;;;;5083016;28;20051;-86
2023/03/21 09:07:44;;;;;;;1999.90;999.90;;;13.10;99.90;;;;;;5093705;28;20040;-87
2023/03/21 09:10:16;;;;;;;1999.90;999.90;;;12.70;99.90;;;;;;5075337;28;20473;-87
2023/03/21 09:12:42;;;;;;;1382.15;546.58;;;12.80;99.90;;;;;;5084895;28;20433;-88
2023/03/21 09:15:10;;;;;;;1999.90;999.90;;;13.00;99.90;;;;;;5077842;28;20123;-87
2023/03/21 09:17:40;;;;;;;1999.90;999.90;;;12.70;99.90;;;;;;5064731;28;20103;-87
2023/03/21 09:20:10;;;;;;;1290.93;531.67;;;13.00;99.90;;;;;;5073322;28;20048;-87
2023/03/21 09:22:37;;;;;;;1999.90;999.90;;;13.20;99.90;;;;;;5084037;28;20557;-87
2023/03/21 09:25:10;;;;;;;1389.00;535.80;;;12.80;99.90;;;;;;5067717;28;20049;-88
2023/03/21 09:27:36;;;;;;;1999.90;999.90;;;12.50;99.90;;;;;;5073234;28;20123;-87
2023/03/21 09:30:02;;;;;;;1999.90;999.90;;;12.70;99.90;;;;;;5087234;28;20460;-87
2023/03/21 09:32:28;;;;;;;1533.45;557.03;;;12.80;99.90;;;;;;5079035;28;20400;-88
2023/03/21 09:34:54;;;;;;;1999.90;999.90;;;12.40;99.90;;;;;;5068300;28;20063;-87
2023/03/21 09:37:21;;;;;;;1441.75;539.90;;;12.40;99.90;;;;;;5089059;28;20443;-87
2023/03/21 09:39:49;;;;;;;1030.43;309.42;;;13.00;99.90;;;;;;5092207;28;20044;-87
2023/03/21 09:42:45;;;;;;;1999.90;999.90;;;12.80;99.90;;;;;;5060309;28;20476;-87
2023/03/21 09:45:19;;;;;;;1999.90;999.90;;;12.80;99.90;;;;;;5072793;28;20106;-88
2023/03/21 09:47:55;;;;;;;1994.15;555.63;;;13.00;99.90;;;;;;5063298;28;20055;-88
2023/03/21 09:50:32;;;;;;;570.45;50.45;;;12.50;99.90;;;;;;5082704;28;20048;-88
2023/03/21 09:53:17;;;;;;;1660.50;771.75;;;12.50;99.90;;;;;;5077136;28;20357;-87
2023/03/21 09:55:44;;;;;;;1999.90;999.90;;;12.30;99.90;;;;;;5092162;28;20051;-88
2023/03/21 09:58:35;;;;;;;1999.90;999.90;;;12.80;99.90;;;;;;5090266;28;20040;-87
2023/03/21 10:01:21;;;;;;;1999.90;999.90;;;12.20;99.90;;;;;;5066658;28;20110;-87
2023/03/21 10:03:49;;;;;;;1570.68;554.95;;;12.30;99.90;;;;;;5080815;28;20067;-87
2023/03/21 10:06:16;;;;;;;1999.90;999.90;;;12.50;99.90;;;;;;5075348;28;20097;-87
2023/03/21 10:08:46;;;;;;;1999.90;999.90;;;12.30;99.90;;;;;;5071734;28;20053;-88
2023/03/21 10:11:15;;;;;;;1999.90;999.90;;;12.40;99.90;;;;;;5091749;28;20044;-87
2023/03/21 10:13:47;;;;;;;1559.88;551.88;;;12.80;99.90;;;;;;5092677;28;20040;-87
2023/03/21 10:16:16;;;;;;;1999.90;999.90;;;12.90;99.90;;;;;;5092381;28;20170;-87
2023/03/21 10:18:43;;;;;;;1999.90;999.90;;;12.90;99.90;;;;;;5083476;28;20484;-87
2023/03/21 10:21:27;;;;;;;1999.90;999.90;;;12.40;99.90;;;;;;5075003;28;20129;-87
2023/03/21 10:23:56;;;;;;;1999.90;999.90;;;13.10;99.90;;;;;;5071225;28;20048;-87
2023/03/21 10:26:26;;;;;;;1999.90;999.90;;;12.90;99.90;;;;;;5055009;28;20067;-87
2023/03/21 10:28:54;;;;;;;1999.90;999.90;;;12.60;99.90;;;;;;5071910;28;20051;-87
2023/03/21 10:31:27;;;;;;;1999.90;999.90;;;12.90;99.90;;;;;;5059839;28;20071;-87
2023/03/21 10:33:57;;;;;;;1999.90;999.90;;;13.00;99.90;;;;;;5074355;28;20467;-87
2023/03/21 10:36:26;;;;;;;1999.90;999.90;;;13.10;99.90;;;;;;5088606;28;20044;-87
2023/03/21 10:39:03;;;;;;;1999.90;999.90;;;12.80;99.90;;;;;;5073213;28;20128;-87
2023/03/21 10:41:29;;;;;;;1999.90;999.90;;;12.70;99.90;;;;;;5077745;28;20069;-86
2023/03/21 10:44:10;;;;;;;1822.95;359.40;;;12.90;99.90;;;;;;5081725;28;20052;-86
2023/03/21 10:46:36;;;;;;;1999.90;999.90;;;12.60;99.90;;;;;;5075028;28;20074;-86
2023/03/21 10:49:02;;;;;;;1999.90;999.90;;;12.80;99.90;;;;;;5070551;28;20053;-87
2023/03/21 10:51:34;;;;;;;1999.90;999.90;;;12.80;99.90;;;;;;5073826;28;20072;-87
2023/03/21 10:54:05;;;;;;;1999.90;999.90;;;12.80;99.90;;;;;;5082415;28;20180;-86
2023/03/21 10:56:36;;;;;;;1687.28;765.45;;;13.10;99.90;;;;;;5088992;28;20504;-86
2023/03/21 10:59:03;;;;;;;1999.90;999.90;;;13.30;99.90;;;;;;5085574;28;20541;-87
2023/03/21 11:01:40;;;;;;;1999.90;999.90;;;12.90;99.90;;;;;;5079030;28;20043;-86
2023/03/21 11:04:13;;;;;;;1999.90;999.90;;;13.50;99.90;;;;;;5078175;28;20497;-86
2023/03/21 11:06:41;;;;;;;1161.43;294.55;;;13.00;99.90;;;;;;5071281;28;20048;-86
2023/03/21 11:09:16;;;;;;;1578.63;757.10;;;13.60;99.90;;;;;;5071340;28;20615;-85
2023/03/21 11:12:01;;;;;;;1750.93;761.08;;;13.90;99.90;;;;;;5083974;28;20397;-85
2023/03/21 11:14:38;;;;;;;1857.45;767.38;;;13.70;99.90;;;;;;5072939;28;20060;-84
2023/03/21 11:17:18;;;;;;;1595.97;757.05;;;14.10;99.90;;;;;;5069108;28;20408;-84
2023/03/21 11:19:59;;;;;;;1461.25;516.17;;;14.10;99.90;;;;;;5091940;28;20044;-84
2023/03/21 11:22:29;;;;;;;1999.90;999.90;;;14.20;99.90;;;;;;5052977;28;20061;-85
2023/03/21 11:25:08;;;;;;;1999.90;999.90;;;13.60;99.90;;;;;;5052485;28;20046;-85
2023/03/21 11:27:34;;;;;;;1999.90;999.90;;;14.20;99.90;;;;;;5071590;28;20041;-84
2023/03/21 11:30:04;;;;;;;1999.90;999.90;;;13.50;99.90;;;;;;5071023;28;20489;-84
2023/03/21 11:32:36;;;;;;;1999.90;999.90;;;14.00;99.90;;;;;;5073855;28;20040;-84
2023/03/21 11:35:19;;;;;;;1999.90;999.90;;;13.80;99.90;;;;;;5084417;28;20039;-84
2023/03/21 11:37:50;;;;;;;1999.90;999.90;;;13.60;99.90;;;;;;5079682;28;20036;-84
2023/03/21 11:40:30;;;;;;;1999.90;999.90;;;14.30;99.90;;;;;;5071454;28;20555;-85
2023/03/21 11:43:15;;;;;;;1999.90;999.90;;;13.80;99.90;;;;;;5073540;28;20056;-84
2023/03/21 11:46:03;;;;;;;1999.90;999.90;;;13.60;99.90;;;;;;5077441;28;20480;-84
2023/03/21 11:48:39;;;;;;;1999.90;999.90;;;14.20;99.90;;;;;;5075377;28;20100;-86
2023/03/21 11:51:32;;;;;;;1999.90;999.90;;;13.80;99.90;;;;;;5076173;28;20037;-86
2023/03/21 11:54:09;;;;;;;1999.90;999.90;;;14.10;99.90;;;;;;5067741;28;20135;-86
2023/03/21 11:56:44;;;;;;;1999.90;999.90;;;14.40;99.90;;;;;;5095728;28;20050;-87
2023/03/21 11:59:34;;;;;;;1999.90;999.90;;;13.90;99.90;;;;;;5093650;28;20044;-87
2023/03/21 12:02:30;;;;;;;1999.90;999.90;;;13.60;99.90;;;;;;5079522;28;20246;-87
2023/03/21 12:05:20;;;;;;;1999.90;999.90;;;13.50;99.90;;;;;;5083216;28;20041;-87
2023/03/21 12:07:48;;;;;;;1999.90;999.90;;;13.90;99.90;;;;;;5074995;28;20586;-88
2023/03/21 12:10:31;;;;;;;1999.90;999.90;;;13.70;99.90;;;;;;5075937;28;20098;-88
2023/03/21 12:13:17;;;;;;;1999.90;999.90;;;14.00;99.90;;;;;;5074425;28;20520;-88
2023/03/21 12:16:01;;;;;;;1999.90;999.90;;;13.60;99.90;;;;;;5092596;28;20044;-88